createdAt,value
2023-03-18T00:00:35.211Z,99.90
2023-03-18T00:03:03.044Z,99.90
2023-03-18T00:05:31.112Z,99.90
2023-03-18T00:07:59.151Z,99.90
2023-03-18T00:10:26.519Z,99.90
2023-03-18T00:12:54.101Z,99.90
2023-03-18T00:15:21.632Z,99.90
2023-03-18T00:17:49.338Z,99.90
2023-03-18T00:20:18.533Z,99.90
2023-03-18T00:22:46.840Z,99.90
2023-03-18T00:25:15.525Z,99.90
2023-03-18T00:27:43.193Z,99.90
2023-03-18T00:30:13.292Z,99.90
2023-03-18T00:32:41.697Z,99.90
2023-03-18T00:35:09.631Z,99.90
2023-03-18T00:37:37.132Z,99.90
2023-03-18T00:40:10.031Z,99.90
2023-03-18T00:42:47.364Z,99.90
2023-03-18T00:45:17.125Z,99.90
2023-03-18T00:47:44.944Z,99.90
2023-03-18T00:50:12.718Z,99.90
2023-03-18T00:52:40.274Z,99.90
2023-03-18T00:55:08.422Z,99.90
2023-03-18T00:57:36.164Z,99.90
2023-03-18T01:00:07.038Z,99.90
2023-03-18T01:02:34.514Z,99.90
2023-03-18T01:05:02.654Z,99.90
2023-03-18T01:07:30.150Z,99.90
2023-03-18T01:09:57.702Z,99.90
2023-03-18T01:12:25.733Z,99.90
2023-03-18T01:14:53.796Z,99.90
2023-03-18T01:17:21.969Z,99.90
2023-03-18T01:19:49.916Z,99.90
2023-03-18T01:22:17.675Z,99.90
2023-03-18T01:24:49.538Z,99.90
2023-03-18T01:27:21.535Z,99.90
2023-03-18T01:29:49.289Z,99.90
2023-03-18T01:32:22.085Z,99.90
2023-03-18T01:34:49.805Z,99.90
2023-03-18T01:37:17.239Z,99.90
2023-03-18T01:39:49.333Z,99.90
2023-03-18T01:42:22.757Z,99.90
2023-03-18T01:44:50.808Z,99.90
2023-03-18T01:47:18.740Z,99.90
2023-03-18T01:49:53.543Z,99.90
2023-03-18T01:52:27.180Z,99.90
2023-03-18T01:55:17.226Z,99.90
2023-03-18T01:57:45.466Z,99.90
2023-03-18T02:00:16.432Z,99.90
2023-03-18T02:02:47.076Z,99.90
2023-03-18T02:05:18.998Z,99.90
2023-03-18T02:07:46.995Z,99.90
2023-03-18T02:10:22.441Z,99.90
2023-03-18T02:12:56.269Z,99.90
2023-03-18T02:15:31.361Z,99.90
2023-03-18T02:18:13.201Z,99.90
2023-03-18T02:20:49.725Z,99.90
2023-03-18T02:23:23.738Z,99.90
2023-03-18T02:26:05.063Z,99.90
2023-03-18T02:28:35.817Z,99.90
2023-03-18T02:31:09.552Z,99.90
2023-03-18T02:33:42.726Z,99.90
2023-03-18T02:36:21.736Z,99.90
2023-03-18T02:38:49.858Z,99.90
2023-03-18T02:41:33.796Z,99.90
2023-03-18T02:44:01.706Z,99.90
2023-03-18T02:46:55.833Z,99.90
2023-03-18T02:49:26.006Z,99.90
2023-03-18T02:52:03.783Z,99.90
2023-03-18T02:54:31.968Z,99.90
2023-03-18T02:57:00.492Z,99.90
2023-03-18T02:59:28.114Z,99.90
2023-03-18T03:01:57.647Z,99.90
2023-03-18T03:04:26.298Z,99.90
2023-03-18T03:06:55.257Z,99.90
2023-03-18T03:09:35.322Z,99.90
2023-03-18T03:12:03.102Z,99.90
2023-03-18T03:14:31.163Z,99.90
2023-03-18T03:17:01.151Z,99.90
2023-03-18T03:19:28.943Z,99.90
2023-03-18T03:21:57.162Z,99.90
2023-03-18T03:24:25.932Z,99.90
2023-03-18T03:26:53.526Z,99.90
2023-03-18T03:29:21.022Z,99.90
2023-03-18T03:31:50.194Z,99.90
2023-03-18T03:34:19.555Z,99.90
2023-03-18T03:36:47.049Z,99.90
2023-03-18T03:39:14.812Z,99.90
2023-03-18T03:41:42.216Z,99.90
2023-03-18T03:44:09.648Z,99.90
2023-03-18T03:46:37.549Z,99.90
2023-03-18T03:49:05.502Z,99.90
2023-03-18T03:51:32.907Z,99.90
2023-03-18T03:54:00.401Z,99.90
2023-03-18T03:56:28.337Z,99.90
2023-03-18T03:58:55.901Z,99.90
2023-03-18T04:01:27.284Z,99.90
2023-03-18T04:03:56.812Z,99.90
2023-03-18T04:06:24.714Z,99.90
2023-03-18T04:08:59.721Z,99.90
2023-03-18T04:11:28.329Z,99.90
2023-03-18T04:13:57.145Z,99.90
2023-03-18T04:16:24.703Z,99.90
2023-03-18T04:18:52.351Z,99.90
2023-03-18T04:21:23.336Z,99.90
2023-03-18T04:23:54.347Z,99.90
2023-03-18T04:26:22.906Z,99.90
2023-03-18T04:28:52.067Z,99.90
2023-03-18T04:31:19.552Z,99.90
2023-03-18T04:33:47.703Z,99.90
2023-03-18T04:36:15.565Z,99.90
2023-03-18T04:38:43.037Z,99.90
2023-03-18T04:41:11.096Z,99.90
2023-03-18T04:43:38.919Z,99.90
2023-03-18T04:46:07.709Z,99.90
2023-03-18T04:48:36.215Z,99.90
2023-03-18T04:51:05.988Z,99.90
2023-03-18T04:53:35.485Z,99.90
2023-03-18T04:56:04.322Z,99.90
2023-03-18T04:58:40.352Z,99.90
2023-03-18T05:01:13.871Z,99.90
2023-03-18T05:03:42.187Z,99.90
2023-03-18T05:06:21.804Z,99.90
2023-03-18T05:08:58.949Z,99.90
2023-03-18T05:11:29.682Z,99.90
2023-03-18T05:14:00.823Z,99.90
2023-03-18T05:16:31.157Z,99.90
2023-03-18T05:19:01.161Z,99.90
2023-03-18T05:21:30.537Z,99.90
2023-03-18T05:23:58.635Z,99.90
2023-03-18T05:26:27.251Z,99.90
2023-03-18T05:28:55.239Z,99.90
2023-03-18T05:31:33.685Z,99.90
2023-03-18T05:34:02.160Z,99.90
2023-03-18T05:36:34.252Z,99.90
2023-03-18T05:39:05.952Z,99.90
2023-03-18T05:41:35.928Z,99.90
2023-03-18T05:44:06.093Z,99.90
2023-03-18T05:46:36.752Z,99.90
2023-03-18T05:49:34.745Z,99.90
2023-03-18T05:52:17.347Z,99.90
2023-03-18T05:54:47.027Z,99.90
2023-03-18T05:57:18.252Z,99.90
2023-03-18T05:59:48.408Z,99.90
2023-03-18T06:02:16.907Z,99.90
2023-03-18T06:04:46.131Z,99.90
2023-03-18T06:07:15.261Z,99.90
2023-03-18T06:09:43.312Z,99.90
2023-03-18T06:12:11.521Z,99.90
2023-03-18T06:14:39.703Z,99.90
2023-03-18T06:17:08.398Z,99.90
2023-03-18T06:19:35.822Z,99.90
2023-03-18T06:22:03.271Z,99.90
2023-03-18T06:24:30.640Z,99.90
2023-03-18T06:26:58.755Z,99.90
2023-03-18T06:29:26.711Z,99.90
2023-03-18T06:31:57.914Z,99.90
2023-03-18T06:34:27.259Z,99.90
2023-03-18T06:36:56.952Z,99.90
2023-03-18T06:39:24.804Z,99.90
2023-03-18T06:41:53.092Z,99.90
2023-03-18T06:44:50.341Z,99.90
2023-03-18T06:47:22.784Z,99.90
2023-03-18T06:49:54.569Z,99.90
2023-03-18T06:52:29.320Z,99.90
2023-03-18T06:55:02.887Z,99.90
2023-03-18T06:57:30.464Z,99.90
2023-03-18T06:59:58.422Z,99.90
2023-03-18T07:02:27.484Z,99.90
2023-03-18T07:04:57.545Z,99.90
2023-03-18T07:07:25.170Z,99.90
2023-03-18T07:09:53.773Z,99.90
2023-03-18T07:12:21.950Z,99.90
2023-03-18T07:14:49.406Z,99.90
2023-03-18T07:17:19.899Z,99.90
2023-03-18T07:19:47.660Z,99.90
2023-03-18T07:22:18.344Z,99.90
2023-03-18T07:24:46.749Z,99.90
2023-03-18T07:27:14.623Z,99.90
2023-03-18T07:29:42.916Z,99.90
2023-03-18T07:32:10.800Z,99.90
2023-03-18T07:34:38.270Z,99.90
2023-03-18T07:37:05.746Z,99.90
2023-03-18T07:39:33.675Z,99.80
2023-03-18T07:42:02.136Z,97.80
2023-03-18T07:44:31.461Z,96.90
2023-03-18T07:46:59.568Z,95.50
2023-03-18T07:49:27.283Z,93.90
2023-03-18T07:51:54.673Z,92.40
2023-03-18T07:54:23.994Z,91.70
2023-03-18T07:56:53.486Z,90.80
2023-03-18T07:59:20.950Z,91.00
2023-03-18T08:01:49.069Z,90.90
2023-03-18T08:04:19.198Z,91.70
2023-03-18T08:06:50.175Z,92.80
2023-03-18T08:09:19.444Z,92.70
2023-03-18T08:11:48.458Z,91.80
2023-03-18T08:14:18.297Z,91.90
2023-03-18T08:16:47.382Z,91.60
2023-03-18T08:19:17.331Z,91.50
2023-03-18T08:21:46.756Z,90.70
2023-03-18T08:24:15.192Z,90.80
2023-03-18T08:26:44.256Z,90.20
2023-03-18T08:29:13.794Z,88.00
2023-03-18T08:31:43.243Z,88.00
2023-03-18T08:34:12.756Z,87.90
2023-03-18T08:36:43.879Z,84.80
2023-03-18T08:39:12.878Z,82.20
2023-03-18T08:41:44.810Z,81.70
2023-03-18T08:44:15.777Z,81.70
2023-03-18T08:46:44.613Z,81.00
2023-03-18T08:49:15.895Z,82.40
2023-03-18T08:51:46.400Z,82.40
2023-03-18T08:54:15.410Z,81.00
2023-03-18T08:56:45.350Z,81.30
2023-03-18T08:59:14.354Z,81.30
2023-03-18T09:01:43.220Z,81.10
2023-03-18T09:04:12.215Z,81.00
2023-03-18T09:06:42.411Z,81.10
2023-03-18T09:09:12.130Z,82.40
2023-03-18T09:11:42.120Z,83.40
2023-03-18T09:14:12.043Z,81.60
2023-03-18T09:16:41.386Z,80.30
2023-03-18T09:19:10.944Z,80.10
2023-03-18T09:21:40.218Z,79.60
2023-03-18T09:24:09.870Z,80.20
2023-03-18T09:26:40.048Z,79.80
2023-03-18T09:29:10.754Z,77.70
2023-03-18T09:31:40.231Z,78.50
2023-03-18T09:34:08.858Z,77.80
2023-03-18T09:36:39.141Z,76.50
2023-03-18T09:39:09.591Z,77.70
2023-03-18T09:41:51.502Z,75.70
2023-03-18T09:44:27.322Z,74.50
2023-03-18T09:47:05.517Z,74.80
2023-03-18T09:49:40.613Z,74.90
2023-03-18T09:52:18.570Z,72.90
2023-03-18T09:55:10.302Z,73.80
2023-03-18T09:57:44.461Z,73.80
2023-03-18T10:00:35.156Z,69.50
2023-03-18T10:03:19.358Z,69.70
2023-03-18T10:05:57.107Z,69.30
2023-03-18T10:08:48.045Z,68.40
2023-03-18T10:11:37.273Z,68.00
2023-03-18T10:14:27.542Z,67.60
2023-03-18T10:17:17.816Z,67.10
2023-03-18T10:19:58.056Z,66.50
2023-03-18T10:23:05.154Z,67.30
2023-03-18T10:25:49.525Z,68.10
2023-03-18T10:28:43.636Z,68.40
2023-03-18T10:31:36.627Z,67.50
2023-03-18T10:34:14.862Z,67.90
2023-03-18T10:37:29.036Z,67.60
2023-03-18T10:40:00.357Z,68.10
2023-03-18T10:42:33.392Z,67.20
2023-03-18T10:45:25.279Z,69.60
2023-03-18T10:48:15.320Z,69.80
2023-03-18T10:51:06.409Z,69.60
2023-03-18T10:53:40.046Z,70.20
2023-03-18T10:56:14.150Z,70.70
2023-03-18T10:58:43.155Z,72.20
2023-03-18T11:01:17.335Z,70.50
2023-03-18T11:03:55.915Z,70.30
2023-03-18T11:06:34.226Z,69.00
2023-03-18T11:09:13.911Z,69.50
2023-03-18T11:11:50.911Z,69.20
2023-03-18T11:14:24.733Z,70.90
2023-03-18T11:17:20.764Z,71.60
2023-03-18T11:20:02.776Z,74.20
2023-03-18T11:22:33.939Z,76.80
2023-03-18T11:25:25.530Z,80.40
2023-03-18T11:28:03.851Z,81.50
2023-03-18T11:30:56.862Z,80.90
2023-03-18T11:33:37.505Z,82.60
2023-03-18T11:36:08.966Z,81.40
2023-03-18T11:38:39.421Z,82.30
2023-03-18T11:41:09.689Z,82.00
2023-03-18T11:43:39.614Z,84.10
2023-03-18T11:46:12.257Z,83.50
2023-03-18T11:48:44.206Z,82.80
2023-03-18T11:51:28.380Z,84.70
2023-03-18T11:54:12.100Z,86.30
2023-03-18T11:56:53.093Z,86.40
2023-03-18T11:59:58.312Z,84.70
2023-03-18T12:02:36.236Z,84.70
2023-03-18T12:05:18.980Z,83.60
2023-03-18T12:07:50.774Z,84.10
2023-03-18T12:10:30.224Z,86.20
2023-03-18T12:13:27.781Z,85.10
2023-03-18T12:16:08.784Z,85.70
2023-03-18T12:19:16.781Z,85.70
2023-03-18T12:22:07.895Z,87.60
2023-03-18T12:24:39.654Z,87.20
2023-03-18T12:27:41.843Z,85.90
2023-03-18T12:30:44.078Z,85.20
2023-03-18T12:33:18.500Z,84.30
2023-03-18T12:36:32.440Z,85.40
2023-03-18T12:39:20.366Z,86.20
2023-03-18T12:42:02.656Z,87.20
2023-03-18T12:44:47.299Z,85.80
2023-03-18T12:47:32.251Z,86.70
2023-03-18T12:50:05.108Z,87.70
2023-03-18T12:52:46.153Z,87.10
2023-03-18T12:55:50.104Z,87.50
2023-03-18T12:58:44.153Z,89.10
2023-03-18T13:01:32.983Z,89.10
2023-03-18T13:04:12.179Z,88.00
2023-03-18T13:07:19.897Z,87.50
2023-03-18T13:10:03.819Z,87.10
2023-03-18T13:12:37.813Z,86.50
2023-03-18T13:15:25.751Z,86.00
2023-03-18T13:17:59.721Z,85.40
2023-03-18T13:20:34.305Z,84.30
2023-03-18T13:23:17.629Z,84.00
2023-03-18T13:26:13.839Z,84.50
2023-03-18T13:29:07.418Z,85.30
2023-03-18T13:32:23.706Z,85.30
2023-03-18T13:35:23.660Z,84.50
2023-03-18T13:38:26.227Z,82.90
2023-03-18T13:41:03.323Z,83.30
2023-03-18T13:43:34.281Z,83.70
2023-03-18T13:46:04.549Z,83.60
2023-03-18T13:48:36.175Z,83.30
2023-03-18T13:51:40.651Z,83.60
2023-03-18T13:54:19.102Z,83.80
2023-03-18T13:56:56.054Z,85.10
2023-03-18T13:59:34.010Z,84.20
2023-03-18T14:02:26.966Z,85.70
2023-03-18T14:04:59.876Z,85.20
2023-03-18T14:07:29.894Z,84.60
2023-03-18T14:10:18.266Z,84.50
2023-03-18T14:12:48.784Z,84.60
2023-03-18T14:15:37.200Z,84.90
2023-03-18T14:18:28.306Z,85.30
2023-03-18T14:21:02.548Z,85.40
2023-03-18T14:23:43.583Z,84.60
2023-03-18T14:26:32.533Z,84.50
2023-03-18T14:29:24.681Z,83.40
2023-03-18T14:32:00.459Z,83.70
2023-03-18T14:34:35.568Z,83.70
2023-03-18T14:37:20.594Z,83.70
2023-03-18T14:39:53.531Z,83.00
2023-03-18T14:42:32.243Z,83.00
2023-03-18T14:45:14.545Z,83.30
2023-03-18T14:47:55.126Z,84.00
2023-03-18T14:50:52.993Z,83.70
2023-03-18T14:53:41.433Z,84.20
2023-03-18T14:56:23.063Z,83.50
2023-03-18T14:58:54.196Z,83.50
2023-03-18T15:01:36.901Z,82.60
2023-03-18T15:04:11.881Z,82.40
2023-03-18T15:06:43.019Z,82.60
2023-03-18T15:09:29.796Z,82.20
2023-03-18T15:12:00.024Z,82.10
2023-03-18T15:14:31.877Z,81.30
2023-03-18T15:17:01.816Z,81.10
2023-03-18T15:19:30.652Z,81.60
2023-03-18T15:22:04.623Z,82.60
2023-03-18T15:24:32.957Z,83.30
2023-03-18T15:27:07.091Z,81.60
2023-03-18T15:29:38.626Z,82.60
2023-03-18T15:32:28.457Z,82.10
2023-03-18T15:35:08.127Z,82.60
2023-03-18T15:37:42.640Z,85.00
2023-03-18T15:40:32.858Z,85.10
2023-03-18T15:43:28.400Z,85.20
2023-03-18T15:46:04.898Z,84.70
2023-03-18T15:48:39.313Z,85.20
2023-03-18T15:51:22.486Z,85.60
2023-03-18T15:53:54.077Z,85.00
2023-03-18T15:56:29.535Z,85.30
2023-03-18T15:59:04.962Z,84.90
2023-03-18T16:01:37.855Z,84.60
2023-03-18T16:04:12.303Z,84.80
2023-03-18T16:06:40.391Z,85.30
2023-03-18T16:09:18.404Z,86.40
2023-03-18T16:11:58.830Z,86.70
2023-03-18T16:14:33.284Z,88.00
2023-03-18T16:17:00.723Z,88.40
2023-03-18T16:19:28.993Z,89.30
2023-03-18T16:21:58.555Z,89.00
2023-03-18T16:24:26.135Z,89.30
2023-03-18T16:26:54.946Z,90.00
2023-03-18T16:29:31.819Z,90.10
2023-03-18T16:32:00.463Z,90.30
2023-03-18T16:34:27.972Z,91.20
2023-03-18T16:36:56.146Z,90.90
2023-03-18T16:39:34.212Z,91.20
2023-03-18T16:42:04.401Z,90.30
2023-03-18T16:44:34.469Z,90.50
2023-03-18T16:47:02.450Z,90.90
2023-03-18T16:49:33.131Z,91.10
2023-03-18T16:52:01.947Z,91.40
2023-03-18T16:54:33.069Z,91.10
2023-03-18T16:57:03.113Z,91.00
2023-03-18T16:59:35.202Z,91.30
2023-03-18T17:02:04.157Z,91.80
2023-03-18T17:04:34.307Z,92.00
2023-03-18T17:07:04.905Z,92.40
2023-03-18T17:09:32.412Z,92.60
2023-03-18T17:12:04.566Z,92.70
2023-03-18T17:14:38.689Z,92.90
2023-03-18T17:17:11.532Z,92.90
2023-03-18T17:19:40.074Z,92.90
2023-03-18T17:22:24.245Z,93.30
2023-03-18T17:24:51.825Z,93.30
2023-03-18T17:27:25.663Z,93.50
2023-03-18T17:29:53.800Z,93.70
2023-03-18T17:32:22.395Z,94.00
2023-03-18T17:34:51.778Z,94.30
2023-03-18T17:37:20.779Z,94.50
2023-03-18T17:39:48.290Z,94.10
2023-03-18T17:42:31.424Z,94.20
2023-03-18T17:45:16.769Z,94.40
2023-03-18T17:47:44.356Z,94.20
2023-03-18T17:50:19.524Z,94.40
2023-03-18T17:52:49.748Z,94.50
2023-03-18T17:55:22.363Z,94.70
2023-03-18T17:57:50.804Z,94.90
2023-03-18T18:00:27.487Z,94.80
2023-03-18T18:02:55.021Z,94.90
2023-03-18T18:05:23.489Z,95.30
2023-03-18T18:07:51.566Z,95.60
2023-03-18T18:10:20.493Z,95.90
2023-03-18T18:12:49.845Z,95.80
2023-03-18T18:15:27.685Z,95.90
2023-03-18T18:17:55.796Z,96.10
2023-03-18T18:20:24.145Z,96.30
2023-03-18T18:22:54.999Z,96.60
2023-03-18T18:25:26.854Z,96.60
2023-03-18T18:27:56.261Z,96.80
2023-03-18T18:30:26.214Z,96.80
2023-03-18T18:32:55.215Z,97.00
2023-03-18T18:35:26.145Z,96.80
2023-03-18T18:37:55.159Z,97.20
2023-03-18T18:40:25.014Z,99.10
2023-03-18T18:42:56.228Z,99.90
2023-03-18T18:45:25.210Z,99.90
2023-03-18T18:47:56.907Z,99.90
2023-03-18T18:50:39.129Z,99.90
2023-03-18T18:53:25.070Z,99.90
2023-03-18T18:55:56.737Z,99.90
2023-03-18T18:58:35.055Z,99.90
2023-03-18T19:01:03.302Z,99.90
2023-03-18T19:03:31.347Z,99.90
2023-03-18T19:06:01.052Z,99.90
2023-03-18T19:08:36.269Z,99.90
2023-03-18T19:11:07.782Z,99.90
2023-03-18T19:13:37.708Z,99.90
2023-03-18T19:16:16.990Z,99.90
2023-03-18T19:18:44.477Z,99.90
2023-03-18T19:21:11.952Z,99.90
2023-03-18T19:23:39.446Z,99.90
2023-03-18T19:26:07.473Z,99.90
2023-03-18T19:28:57.546Z,99.90
2023-03-18T19:31:30.491Z,99.90
2023-03-18T19:33:59.441Z,99.90
2023-03-18T19:36:28.155Z,99.90
2023-03-18T19:38:58.288Z,99.90
2023-03-18T19:41:26.823Z,99.90
2023-03-18T19:43:58.627Z,99.90
2023-03-18T19:46:39.076Z,99.90
2023-03-18T19:49:16.984Z,99.90
2023-03-18T19:51:44.620Z,99.90
2023-03-18T19:54:23.728Z,99.90
2023-03-18T19:56:53.130Z,99.90
2023-03-18T19:59:23.764Z,99.90
2023-03-18T20:01:51.659Z,99.90
2023-03-18T20:04:19.839Z,99.90
2023-03-18T20:06:51.013Z,99.90
2023-03-18T20:09:18.384Z,99.90
2023-03-18T20:11:46.955Z,99.90
2023-03-18T20:14:20.434Z,99.90
2023-03-18T20:16:49.313Z,99.90
2023-03-18T20:19:17.390Z,99.90
2023-03-18T20:21:48.295Z,99.90
2023-03-18T20:24:18.605Z,99.90
2023-03-18T20:26:45.983Z,99.90
2023-03-18T20:29:19.010Z,99.90
2023-03-18T20:31:46.831Z,99.90
2023-03-18T20:34:14.429Z,99.90
2023-03-18T20:36:42.467Z,99.90
2023-03-18T20:39:19.845Z,99.90
2023-03-18T20:41:48.240Z,99.90
2023-03-18T20:44:15.748Z,99.90
2023-03-18T20:46:44.901Z,99.90
2023-03-18T20:49:12.847Z,99.90
2023-03-18T20:51:41.316Z,99.90
2023-03-18T20:54:29.969Z,99.90
2023-03-18T20:56:58.099Z,99.90
2023-03-18T20:59:25.635Z,99.90
2023-03-18T21:01:53.117Z,99.90
2023-03-18T21:04:20.574Z,99.90
2023-03-18T21:06:48.645Z,99.90
2023-03-18T21:09:16.464Z,99.90
2023-03-18T21:11:43.945Z,99.90
2023-03-18T21:14:15.457Z,99.90
2023-03-18T21:16:42.991Z,99.90
2023-03-18T21:19:11.209Z,99.90
2023-03-18T21:21:39.440Z,99.90
2023-03-18T21:24:27.911Z,99.90
2023-03-18T21:27:04.291Z,99.90
2023-03-18T21:29:33.087Z,99.90
2023-03-18T21:32:01.729Z,99.90
2023-03-18T21:34:29.198Z,99.90
2023-03-18T21:36:57.347Z,99.90
2023-03-18T21:39:24.804Z,99.90
2023-03-18T21:41:52.283Z,99.90
2023-03-18T21:44:19.688Z,99.90
2023-03-18T21:46:48.779Z,99.90
2023-03-18T21:49:16.221Z,99.90
2023-03-18T21:51:43.673Z,99.90
2023-03-18T21:54:18.841Z,99.90
2023-03-18T21:56:46.312Z,99.90
2023-03-18T21:59:15.137Z,99.90
2023-03-18T22:01:42.720Z,99.90
2023-03-18T22:04:10.685Z,99.90
2023-03-18T22:06:38.114Z,99.90
2023-03-18T22:09:05.868Z,99.90
2023-03-18T22:11:33.320Z,99.90
2023-03-18T22:14:00.740Z,99.90
2023-03-18T22:16:28.413Z,99.90
2023-03-18T22:18:56.101Z,99.90
2023-03-18T22:21:26.470Z,99.90
2023-03-18T22:23:54.874Z,99.90
2023-03-18T22:26:22.320Z,99.90
2023-03-18T22:28:50.689Z,99.90
2023-03-18T22:31:22.700Z,99.90
2023-03-18T22:33:51.009Z,99.90
2023-03-18T22:36:21.688Z,99.90
2023-03-18T22:38:49.371Z,99.90
2023-03-18T22:41:30.267Z,99.90
2023-03-18T22:44:00.068Z,99.90
2023-03-18T22:46:28.537Z,99.90
2023-03-18T22:48:59.205Z,99.90
2023-03-18T22:51:29.597Z,99.90
2023-03-18T22:53:57.190Z,99.90
2023-03-18T22:56:24.666Z,99.90
2023-03-18T22:58:52.321Z,99.90
2023-03-18T23:01:31.159Z,99.90
2023-03-18T23:03:58.906Z,99.90
2023-03-18T23:06:27.259Z,99.90
2023-03-18T23:08:54.823Z,99.90
2023-03-18T23:11:22.311Z,99.90
2023-03-18T23:13:50.718Z,99.90
2023-03-18T23:16:23.626Z,99.90
2023-03-18T23:18:51.735Z,99.90
2023-03-18T23:21:28.244Z,99.90
2023-03-18T23:23:56.600Z,99.90
2023-03-18T23:26:24.068Z,99.90
2023-03-18T23:28:51.730Z,99.90
2023-03-18T23:31:19.214Z,99.90
2023-03-18T23:33:47.250Z,99.90
2023-03-18T23:36:14.813Z,99.90
2023-03-18T23:38:42.537Z,99.90
2023-03-18T23:41:10.275Z,99.90
2023-03-18T23:43:37.752Z,99.90
2023-03-18T23:46:05.671Z,99.90
2023-03-18T23:48:33.177Z,99.90
2023-03-18T23:51:00.858Z,99.90
2023-03-18T23:53:28.331Z,99.90
2023-03-18T23:55:55.970Z,99.90
2023-03-18T23:58:23.433Z,99.90
